createdAt,value
2018-01-24T00:00:18.820Z,2.50
2018-01-24T00:02:46.311Z,2.87
2018-01-24T00:05:14.617Z,2.90
2018-01-24T00:07:42.114Z,2.55
2018-01-24T00:10:09.655Z,2.37
2018-01-24T00:12:37.144Z,2.53
2018-01-24T00:15:04.642Z,2.80
2018-01-24T00:17:32.173Z,2.95
2018-01-24T00:19:59.669Z,3.60
2018-01-24T00:22:27.206Z,2.55
2018-01-24T00:24:55.484Z,2.87
2018-01-24T00:27:23.781Z,3.35
2018-01-24T00:29:51.290Z,3.10
2018-01-24T00:32:18.816Z,2.55
2018-01-24T00:34:46.312Z,2.70
2018-01-24T00:37:13.826Z,2.50
2018-01-24T00:39:41.360Z,2.72
2018-01-24T00:42:09.644Z,2.80
2018-01-24T00:44:37.942Z,2.75
2018-01-24T00:47:05.465Z,2.83
2018-01-24T00:49:33.764Z,2.20
2018-01-24T00:52:02.025Z,2.67
2018-01-24T00:54:29.540Z,2.20
2018-01-24T00:56:57.056Z,2.70
2018-01-24T00:59:25.320Z,2.30
2018-01-24T01:01:52.832Z,2.60
2018-01-24T01:04:20.335Z,2.78
2018-01-24T01:06:47.847Z,2.85
2018-01-24T01:09:15.398Z,2.50
2018-01-24T01:11:42.933Z,2.40
2018-01-24T01:14:11.196Z,2.22
2018-01-24T01:16:38.693Z,2.45
2018-01-24T01:19:06.213Z,2.58
2018-01-24T01:21:33.708Z,2.30
2018-01-24T01:24:01.237Z,2.25
2018-01-24T01:26:29.497Z,2.35
2018-01-24T01:28:57.019Z,2.35
2018-01-24T01:31:24.521Z,2.30
2018-01-24T01:33:52.037Z,2.00
2018-01-24T01:36:19.528Z,1.90
2018-01-24T01:38:47.058Z,2.10
2018-01-24T01:41:14.555Z,2.30
2018-01-24T01:43:42.070Z,2.25
2018-01-24T01:46:09.596Z,2.10
2018-01-24T01:48:37.877Z,2.70
2018-01-24T01:51:06.176Z,2.42
2018-01-24T01:53:33.680Z,1.80
2018-01-24T01:56:01.195Z,2.50
2018-01-24T01:58:28.693Z,2.10
2018-01-24T02:00:56.217Z,2.30
2018-01-24T02:03:23.725Z,2.70
2018-01-24T02:05:51.222Z,2.05
2018-01-24T02:08:18.758Z,1.85
2018-01-24T02:10:47.029Z,2.40
2018-01-24T02:13:14.541Z,2.30
2018-01-24T02:15:42.038Z,1.98
2018-01-24T02:18:09.559Z,2.00
2018-01-24T02:20:37.065Z,1.80
2018-01-24T02:23:05.360Z,2.25
2018-01-24T02:25:32.877Z,2.10
2018-01-24T02:28:00.377Z,1.90
2018-01-24T02:30:28.684Z,1.80
2018-01-24T02:32:56.185Z,1.90
2018-01-24T02:35:23.716Z,1.80
2018-01-24T02:37:51.229Z,2.00
2018-01-24T02:40:18.749Z,1.90
2018-01-24T02:42:46.261Z,1.92
2018-01-24T02:45:14.550Z,2.30
2018-01-24T02:47:42.052Z,1.85
2018-01-24T02:50:09.792Z,1.92
2018-01-24T02:52:37.299Z,2.10
2018-01-24T02:55:04.795Z,1.90
2018-01-24T02:57:32.322Z,1.70
2018-01-24T03:00:00.600Z,1.80
2018-01-24T03:02:28.884Z,1.70
2018-01-24T03:04:57.151Z,2.40
2018-01-24T03:07:24.697Z,1.73
2018-01-24T03:09:52.207Z,1.85
2018-01-24T03:12:19.964Z,2.17
2018-01-24T03:14:48.223Z,1.67
2018-01-24T03:17:17.264Z,2.05
2018-01-24T03:19:44.760Z,1.45
2018-01-24T03:22:12.270Z,1.42
2018-01-24T03:24:39.788Z,1.70
2018-01-24T03:27:07.285Z,1.60
2018-01-24T03:29:34.833Z,1.80
2018-01-24T03:32:02.331Z,2.12
2018-01-24T03:34:29.857Z,1.80
2018-01-24T03:36:57.361Z,1.50
2018-01-24T03:39:24.900Z,1.80
2018-01-24T03:41:52.417Z,1.40
2018-01-24T03:44:20.713Z,1.27
2018-01-24T03:46:48.208Z,1.73
2018-01-24T03:49:15.707Z,1.50
2018-01-24T03:51:43.984Z,1.30
2018-01-24T03:54:12.245Z,1.42
2018-01-24T03:56:39.764Z,1.30
2018-01-24T03:59:07.296Z,1.50
2018-01-24T04:01:34.799Z,1.75
2018-01-24T04:04:02.310Z,1.58
2018-01-24T04:06:31.603Z,1.25
2018-01-24T04:08:59.876Z,1.40
2018-01-24T04:11:27.386Z,1.80
2018-01-24T04:13:54.877Z,1.55
2018-01-24T04:16:22.390Z,1.77
2018-01-24T04:18:49.905Z,1.83
2018-01-24T04:21:17.423Z,1.70
2018-01-24T04:23:44.952Z,2.03
2018-01-24T04:26:12.465Z,1.60
2018-01-24T04:28:39.994Z,1.98
2018-01-24T04:31:07.497Z,1.40
2018-01-24T04:33:35.017Z,1.80
2018-01-24T04:36:02.513Z,1.70
2018-01-24T04:38:30.008Z,1.73
2018-01-24T04:40:57.530Z,1.67
2018-01-24T04:43:25.867Z,2.60
2018-01-24T04:45:53.378Z,2.78
2018-01-24T04:48:21.653Z,2.00
2018-01-24T04:50:49.948Z,1.65
2018-01-24T04:53:18.211Z,2.30
2018-01-24T04:55:45.723Z,2.50
2018-01-24T04:58:13.207Z,2.20
2018-01-24T05:00:40.722Z,2.00
2018-01-24T05:03:08.220Z,2.40
2018-01-24T05:05:35.712Z,2.25
2018-01-24T05:08:03.231Z,5.70
2018-01-24T05:10:30.735Z,3.75
2018-01-24T05:12:59.017Z,2.25
2018-01-24T05:15:26.515Z,2.10
2018-01-24T05:17:54.028Z,1.85
2018-01-24T05:20:22.941Z,2.42
2018-01-24T05:22:51.206Z,2.15
2018-01-24T05:25:19.460Z,2.00
2018-01-24T05:27:46.980Z,2.40
2018-01-24T05:30:14.468Z,2.75
2018-01-24T05:32:41.978Z,2.17
2018-01-24T05:35:09.469Z,2.10
2018-01-24T05:37:36.984Z,1.98
2018-01-24T05:40:06.265Z,2.25
2018-01-24T05:42:33.777Z,2.35
2018-01-24T05:45:01.284Z,2.65
2018-01-24T05:47:29.568Z,2.37
2018-01-24T05:49:57.083Z,2.47
2018-01-24T05:52:24.574Z,2.30
2018-01-24T05:54:52.156Z,2.65
2018-01-24T05:57:20.412Z,2.70
2018-01-24T05:59:48.956Z,2.50
2018-01-24T06:02:16.452Z,3.65
2018-01-24T06:04:43.981Z,2.87
2018-01-24T06:07:11.505Z,2.50
2018-01-24T06:09:39.788Z,2.50
2018-01-24T06:12:07.283Z,2.83
2018-01-24T06:14:34.800Z,2.58
2018-01-24T06:17:02.287Z,2.83
2018-01-24T06:19:29.827Z,2.87
2018-01-24T06:21:57.330Z,2.72
2018-01-24T06:24:24.829Z,2.22
2018-01-24T06:26:53.120Z,2.45
2018-01-24T06:29:20.677Z,2.90
2018-01-24T06:31:48.958Z,2.40
2018-01-24T06:34:16.474Z,2.67
2018-01-24T06:36:43.986Z,2.20
2018-01-24T06:39:11.502Z,2.30
2018-01-24T06:41:39.804Z,3.10
2018-01-24T06:44:08.064Z,2.70
2018-01-24T06:46:36.362Z,3.12
2018-01-24T06:49:04.615Z,3.00
2018-01-24T06:51:32.144Z,2.92
2018-01-24T06:54:00.749Z,2.90
2018-01-24T06:56:28.308Z,2.67
2018-01-24T06:58:55.820Z,3.33
2018-01-24T07:01:23.389Z,2.70
2018-01-24T07:03:50.952Z,3.30
2018-01-24T07:06:18.448Z,3.47
2018-01-24T07:08:46.073Z,3.40
2018-01-24T07:11:13.781Z,2.65
2018-01-24T07:13:53.355Z,2.87
2018-01-24T07:16:20.878Z,2.65
2018-01-24T07:18:48.425Z,3.15
2018-01-24T07:21:15.927Z,3.05
2018-01-24T07:23:44.220Z,2.70
2018-01-24T07:26:11.711Z,3.42
2018-01-24T07:28:39.206Z,3.80
2018-01-24T07:31:06.724Z,2.90
2018-01-24T07:33:34.253Z,3.20
2018-01-24T07:36:01.764Z,3.20
2018-01-24T07:38:29.274Z,3.40
2018-01-24T07:40:56.797Z,3.08
2018-01-24T07:43:24.292Z,3.15
2018-01-24T07:45:51.821Z,3.15
2018-01-24T07:48:19.339Z,3.42
2018-01-24T07:50:46.868Z,3.12
2018-01-24T07:53:15.135Z,2.72
2018-01-24T07:55:43.388Z,2.75
2018-01-24T07:58:10.905Z,3.10
2018-01-24T08:00:38.404Z,3.50
2018-01-24T08:03:05.917Z,2.67
2018-01-24T08:05:33.418Z,2.80
2018-01-24T08:08:00.936Z,3.30
2018-01-24T08:10:28.435Z,2.80
2018-01-24T08:12:55.946Z,2.22
2018-01-24T08:15:23.456Z,2.53
2018-01-24T08:17:50.977Z,2.37
2018-01-24T08:20:18.467Z,1.60
2018-01-24T08:22:45.995Z,2.00
2018-01-24T08:25:13.510Z,1.48
2018-01-24T08:27:41.017Z,1.90
2018-01-24T08:30:08.553Z,1.40
2018-01-24T08:32:36.059Z,1.58
2018-01-24T08:35:03.580Z,1.55
2018-01-24T08:37:31.076Z,1.70
2018-01-24T08:39:58.609Z,1.80
2018-01-24T08:42:26.109Z,1.75
2018-01-24T08:44:53.609Z,1.40
2018-01-24T08:47:21.889Z,1.40
2018-01-24T08:49:50.152Z,1.50
2018-01-24T08:52:18.448Z,1.48
2018-01-24T08:54:45.951Z,1.52
2018-01-24T08:57:13.481Z,1.90
2018-01-24T08:59:40.992Z,2.12
2018-01-24T09:02:08.525Z,1.25
2018-01-24T09:04:36.025Z,1.55
2018-01-24T09:07:04.317Z,1.58
2018-01-24T09:09:32.601Z,1.55
2018-01-24T09:12:00.096Z,1.48
2018-01-24T09:14:27.614Z,1.80
2018-01-24T09:16:55.886Z,2.03
2018-01-24T09:19:24.168Z,1.60
2018-01-24T09:21:52.423Z,1.70
2018-01-24T09:24:19.942Z,2.25
2018-01-24T09:26:47.445Z,1.90
2018-01-24T09:29:15.726Z,2.42
2018-01-24T09:31:44.012Z,2.25
2018-01-24T09:34:12.281Z,1.70
2018-01-24T09:36:40.566Z,2.08
2018-01-24T09:39:08.835Z,2.47
2018-01-24T09:41:37.135Z,2.10
2018-01-24T09:44:04.641Z,2.20
2018-01-24T09:46:32.160Z,2.35
2018-01-24T09:48:59.652Z,1.83
2018-01-24T09:51:27.151Z,2.22
2018-01-24T09:53:56.146Z,2.00
2018-01-24T09:56:24.416Z,3.20
2018-01-24T09:58:51.943Z,2.15
2018-01-24T10:01:19.441Z,2.70
2018-01-24T10:03:47.729Z,2.40
2018-01-24T10:06:16.005Z,2.42
2018-01-24T10:08:44.357Z,2.37
2018-01-24T10:11:12.690Z,2.85
2018-01-24T10:13:41.343Z,2.37
2018-01-24T10:16:09.848Z,2.72
2018-01-24T10:18:38.396Z,2.60
2018-01-24T10:21:05.911Z,2.47
2018-01-24T10:23:34.184Z,2.10
2018-01-24T10:26:01.694Z,2.60
2018-01-24T10:28:29.203Z,2.87
2018-01-24T10:30:56.729Z,2.75
2018-01-24T10:33:25.141Z,2.30
2018-01-24T10:35:52.673Z,2.45
2018-01-24T10:38:20.940Z,2.72
2018-01-24T10:40:49.227Z,2.40
2018-01-24T10:43:17.521Z,2.70
2018-01-24T10:45:45.028Z,2.53
2018-01-24T10:48:12.555Z,2.80
2018-01-24T10:50:40.073Z,2.85
2018-01-24T10:53:08.365Z,2.78
2018-01-24T10:55:35.860Z,2.55
2018-01-24T10:58:03.377Z,2.30
2018-01-24T11:00:31.656Z,2.67
2018-01-24T11:02:59.937Z,2.00
2018-01-24T11:05:28.216Z,2.70
2018-01-24T11:07:56.504Z,2.70
2018-01-24T11:10:24.016Z,2.10
2018-01-24T11:12:51.549Z,2.33
2018-01-24T11:15:19.078Z,1.83
2018-01-24T11:17:46.592Z,1.90
2018-01-24T11:20:14.174Z,1.90
2018-01-24T11:22:41.642Z,1.83
2018-01-24T11:25:09.933Z,1.95
2018-01-24T11:27:37.432Z,1.70
2018-01-24T11:30:04.943Z,1.58
2018-01-24T11:32:33.214Z,1.67
2018-01-24T11:35:01.528Z,1.75
2018-01-24T11:37:29.016Z,1.62
2018-01-24T11:39:56.536Z,1.87
2018-01-24T11:42:24.039Z,1.60
2018-01-24T11:44:51.541Z,1.87
2018-01-24T11:47:19.065Z,2.03
2018-01-24T11:49:46.569Z,1.90
2018-01-24T11:52:14.089Z,1.75
2018-01-24T11:54:41.602Z,1.40
2018-01-24T11:57:09.149Z,1.65
2018-01-24T11:59:36.649Z,1.50
2018-01-24T12:02:04.172Z,1.60
2018-01-24T12:04:31.675Z,1.73
2018-01-24T12:06:59.194Z,2.00
2018-01-24T12:09:26.698Z,1.80
2018-01-24T12:11:54.203Z,1.20
2018-01-24T12:14:21.732Z,1.30
2018-01-24T12:16:49.225Z,2.10
2018-01-24T12:19:16.752Z,1.35
2018-01-24T12:21:44.248Z,1.40
2018-01-24T12:24:11.768Z,1.40
2018-01-24T12:26:40.053Z,1.85
2018-01-24T12:29:08.344Z,1.30
2018-01-24T12:31:35.849Z,1.17
2018-01-24T12:34:03.381Z,1.50
2018-01-24T12:36:30.884Z,1.30
2018-01-24T12:38:58.376Z,1.33
2018-01-24T12:41:26.666Z,1.27
2018-01-24T12:43:54.180Z,1.20
2018-01-24T12:46:21.703Z,0.93
2018-01-24T12:48:49.200Z,1.10
2018-01-24T12:51:16.710Z,1.05
2018-01-24T12:53:44.211Z,1.00
2018-01-24T12:56:12.566Z,0.93
2018-01-24T12:58:40.079Z,1.40
2018-01-24T13:01:08.393Z,1.20
2018-01-24T13:03:35.905Z,1.02
2018-01-24T13:06:03.409Z,1.17
2018-01-24T13:08:30.932Z,0.75
2018-01-24T13:10:59.201Z,1.10
2018-01-24T13:13:26.724Z,1.17
2018-01-24T13:15:54.228Z,0.80
2018-01-24T13:18:21.744Z,0.88
2018-01-24T13:20:49.255Z,1.17
2018-01-24T13:23:17.556Z,0.90
2018-01-24T13:25:45.072Z,0.90
2018-01-24T13:28:12.618Z,0.90
2018-01-24T13:30:40.116Z,0.90
2018-01-24T13:33:07.620Z,1.05
2018-01-24T13:35:35.153Z,0.80
2018-01-24T13:38:02.652Z,1.02
2018-01-24T13:40:30.183Z,1.00
2018-01-24T13:42:57.684Z,0.80
2018-01-24T13:45:25.217Z,1.50
2018-01-24T13:47:52.784Z,0.80
2018-01-24T13:50:20.314Z,0.85
2018-01-24T13:52:47.827Z,0.80
2018-01-24T13:55:15.358Z,0.90
2018-01-24T13:57:42.889Z,1.00
2018-01-24T14:00:10.412Z,1.10
2018-01-24T14:02:37.944Z,0.90
2018-01-24T14:05:05.452Z,1.00
2018-01-24T14:07:32.975Z,1.17
2018-01-24T14:10:00.469Z,1.10
2018-01-24T14:12:28.754Z,0.80
2018-01-24T14:14:57.025Z,1.17
2018-01-24T14:17:25.314Z,1.20
2018-01-24T14:19:53.582Z,1.10
2018-01-24T14:22:21.873Z,1.00
2018-01-24T14:24:49.384Z,0.90
2018-01-24T14:27:17.358Z,1.37
2018-01-24T14:29:44.877Z,1.45
2018-01-24T14:32:12.390Z,1.35
2018-01-24T14:34:40.710Z,1.00
2018-01-24T14:37:08.217Z,1.20
2018-01-24T14:39:35.736Z,1.65
2018-01-24T14:42:04.022Z,1.50
2018-01-24T14:44:31.542Z,1.40
2018-01-24T14:46:59.821Z,1.00
2018-01-24T14:49:28.108Z,0.90
2018-01-24T14:51:55.611Z,1.37
2018-01-24T14:54:23.135Z,1.00
2018-01-24T14:56:50.641Z,1.12
2018-01-24T14:59:18.144Z,1.40
2018-01-24T15:01:45.662Z,1.50
2018-01-24T15:04:13.223Z,1.20
2018-01-24T15:06:40.740Z,0.90
2018-01-24T15:09:08.241Z,1.10
2018-01-24T15:11:35.758Z,1.58
2018-01-24T15:14:03.252Z,1.20
2018-01-24T15:16:30.762Z,1.40
2018-01-24T15:18:58.285Z,1.10
2018-01-24T15:21:25.784Z,1.40
2018-01-24T15:23:53.306Z,1.27
2018-01-24T15:26:20.798Z,1.20
2018-01-24T15:28:48.315Z,1.25
2018-01-24T15:31:15.812Z,1.80
2018-01-24T15:33:43.332Z,1.30
2018-01-24T15:36:11.628Z,1.10
2018-01-24T15:38:39.933Z,1.35
2018-01-24T15:41:07.433Z,1.80
2018-01-24T15:43:34.950Z,1.90
2018-01-24T15:46:02.468Z,1.20
2018-01-24T15:48:29.977Z,1.33
2018-01-24T15:50:57.493Z,1.45
2018-01-24T15:53:25.029Z,1.10
2018-01-24T15:55:52.557Z,1.60
2018-01-24T15:58:20.076Z,1.25
2018-01-24T16:00:48.388Z,1.60
2018-01-24T16:03:15.880Z,1.40
2018-01-24T16:05:43.389Z,1.50
2018-01-24T16:08:11.684Z,1.20
2018-01-24T16:10:39.180Z,1.23
2018-01-24T16:13:06.700Z,1.40
2018-01-24T16:15:35.006Z,1.55
2018-01-24T16:18:02.537Z,1.60
2018-01-24T16:20:30.797Z,1.70
2018-01-24T16:22:58.330Z,1.70
2018-01-24T16:25:25.826Z,2.00
2018-01-24T16:27:54.097Z,2.00
2018-01-24T16:30:22.392Z,2.33
2018-01-24T16:32:49.912Z,2.40
2018-01-24T16:35:17.425Z,1.85
2018-01-24T16:37:44.919Z,2.58
2018-01-24T16:40:12.447Z,2.80
2018-01-24T16:42:39.940Z,2.12
2018-01-24T16:45:07.463Z,2.60
2018-01-24T16:47:34.972Z,1.80
2018-01-24T16:50:02.506Z,1.75
2018-01-24T16:52:30.021Z,1.62
2018-01-24T16:54:58.280Z,2.00
2018-01-24T16:57:25.793Z,2.28
2018-01-24T16:59:53.292Z,1.75
2018-01-24T17:02:20.803Z,2.00
2018-01-24T17:04:48.292Z,2.05
2018-01-24T17:07:15.802Z,2.35
2018-01-24T17:09:43.303Z,3.03
2018-01-24T17:12:10.796Z,1.70
2018-01-24T17:14:39.084Z,2.28
2018-01-24T17:17:07.340Z,1.90
2018-01-24T17:19:34.870Z,1.85
2018-01-24T17:22:02.375Z,2.35
2018-01-24T17:24:30.653Z,2.00
2018-01-24T17:26:58.915Z,2.33
2018-01-24T17:29:26.435Z,1.83
2018-01-24T17:31:53.937Z,2.20
2018-01-24T17:34:21.431Z,1.70
2018-01-24T17:36:48.956Z,2.00
2018-01-24T17:39:16.468Z,1.90
2018-01-24T17:41:44.027Z,2.55
2018-01-24T17:44:11.530Z,2.45
2018-01-24T17:46:39.046Z,2.42
2018-01-24T17:49:06.605Z,2.55
2018-01-24T17:51:34.131Z,2.60
2018-01-24T17:54:02.400Z,2.70
2018-01-24T17:56:29.922Z,2.30
2018-01-24T17:58:57.465Z,2.50
2018-01-24T18:01:24.967Z,1.90
2018-01-24T18:03:53.288Z,2.30
2018-01-24T18:06:20.809Z,2.20
2018-01-24T18:08:48.328Z,2.58
2018-01-24T18:11:15.844Z,2.55
2018-01-24T18:13:43.371Z,2.72
2018-01-24T18:16:11.482Z,2.75
2018-01-24T18:18:39.767Z,2.40
2018-01-24T18:21:07.290Z,2.35
2018-01-24T18:23:34.797Z,2.20
2018-01-24T18:26:02.320Z,2.55
2018-01-24T18:28:29.823Z,2.28
2018-01-24T18:30:57.352Z,2.33
2018-01-24T18:33:24.856Z,2.12
2018-01-24T18:35:52.394Z,2.30
2018-01-24T18:38:19.903Z,2.03
2018-01-24T18:40:47.402Z,3.50
2018-01-24T18:43:14.932Z,2.40
2018-01-24T18:45:42.436Z,2.50
2018-01-24T18:48:09.966Z,2.87
2018-01-24T18:50:38.243Z,2.42
2018-01-24T18:53:06.525Z,2.62
2018-01-24T18:55:34.812Z,2.28
2018-01-24T18:58:03.111Z,1.87
2018-01-24T19:00:30.616Z,2.70
2018-01-24T19:02:58.117Z,2.83
2018-01-24T19:05:25.652Z,2.62
2018-01-24T19:07:53.933Z,2.53
2018-01-24T19:10:21.569Z,2.75
2018-01-24T19:12:49.078Z,2.60
2018-01-24T19:15:16.601Z,2.58
2018-01-24T19:17:44.101Z,2.22
2018-01-24T19:20:11.842Z,2.50
2018-01-24T19:22:40.100Z,3.62
2018-01-24T19:25:07.603Z,2.30
2018-01-24T19:27:35.210Z,2.70
2018-01-24T19:30:03.695Z,2.30
2018-01-24T19:32:31.288Z,2.33
2018-01-24T19:34:59.560Z,2.75
2018-01-24T19:37:27.845Z,2.55
2018-01-24T19:39:56.297Z,2.53
2018-01-24T19:42:24.623Z,2.55
2018-01-24T19:44:52.117Z,2.65
2018-01-24T19:47:19.621Z,2.50
2018-01-24T19:49:47.127Z,2.40
2018-01-24T19:52:14.631Z,2.55
2018-01-24T19:54:42.917Z,2.12
2018-01-24T19:57:10.420Z,2.35
2018-01-24T19:59:37.948Z,2.30
2018-01-24T20:02:05.445Z,2.72
2018-01-24T20:04:32.968Z,2.30
2018-01-24T20:07:00.478Z,2.42
2018-01-24T20:09:28.036Z,2.50
2018-01-24T20:11:55.576Z,3.00
2018-01-24T20:14:23.128Z,2.50
2018-01-24T20:16:50.625Z,2.28
2018-01-24T20:19:18.116Z,2.70
2018-01-24T20:21:46.408Z,2.95
2018-01-24T20:24:13.900Z,2.85
2018-01-24T20:26:41.421Z,2.95
2018-01-24T20:29:08.985Z,2.17
2018-01-24T20:31:36.509Z,2.40
2018-01-24T20:34:04.013Z,3.12
2018-01-24T20:36:32.240Z,2.72
2018-01-24T20:38:59.733Z,2.15
2018-01-24T20:41:27.249Z,2.95
2018-01-24T20:43:54.793Z,2.55
2018-01-24T20:46:22.308Z,2.65
2018-01-24T20:48:49.817Z,2.55
2018-01-24T20:51:17.316Z,2.50
2018-01-24T20:53:45.601Z,2.95
2018-01-24T20:56:13.861Z,2.55
2018-01-24T20:58:41.374Z,2.55
2018-01-24T21:01:08.870Z,2.60
2018-01-24T21:03:36.388Z,2.15
2018-01-24T21:06:03.888Z,2.70
2018-01-24T21:08:32.396Z,2.70
2018-01-24T21:11:00.668Z,2.70
2018-01-24T21:13:29.056Z,3.08
2018-01-24T21:15:57.329Z,2.55
2018-01-24T21:18:24.968Z,2.80
2018-01-24T21:20:52.479Z,2.70
2018-01-24T21:23:19.972Z,2.65
2018-01-24T21:25:47.484Z,2.28
2018-01-24T21:28:15.006Z,1.90
2018-01-24T21:30:54.218Z,2.05
2018-01-24T21:33:33.562Z,2.35
2018-01-24T21:36:01.915Z,2.90
2018-01-24T21:38:29.429Z,2.58
2018-01-24T21:40:57.770Z,2.30
2018-01-24T21:43:25.290Z,2.70
2018-01-24T21:45:52.788Z,3.28
2018-01-24T21:48:20.312Z,2.45
2018-01-24T21:50:47.819Z,2.28
2018-01-24T21:53:15.356Z,2.97
2018-01-24T21:55:42.863Z,3.20
2018-01-24T21:58:11.153Z,2.65
2018-01-24T22:00:39.421Z,3.30
2018-01-24T22:03:07.712Z,2.33
2018-01-24T22:05:35.977Z,2.37
2018-01-24T22:08:04.257Z,2.55
2018-01-24T22:10:32.542Z,2.40
2018-01-24T22:13:00.806Z,2.20
2018-01-24T22:15:28.369Z,2.50
2018-01-24T22:17:55.843Z,2.42
2018-01-24T22:20:23.410Z,2.12
2018-01-24T22:22:51.656Z,1.90
2018-01-24T22:25:19.185Z,2.55
2018-01-24T22:27:46.688Z,2.30
2018-01-24T22:30:14.940Z,2.30
2018-01-24T22:32:42.484Z,2.47
2018-01-24T22:35:09.994Z,2.42
2018-01-24T22:37:37.512Z,2.55
2018-01-24T22:40:05.009Z,2.35
2018-01-24T22:42:33.293Z,2.25
2018-01-24T22:45:00.797Z,2.45
2018-01-24T22:47:28.307Z,2.00
2018-01-24T22:49:55.820Z,2.30
2018-01-24T22:52:23.317Z,2.35
2018-01-24T22:54:51.610Z,2.00
2018-01-24T22:57:19.120Z,1.95
2018-01-24T22:59:46.632Z,2.55
2018-01-24T23:02:14.129Z,2.40
2018-01-24T23:04:41.647Z,2.20
2018-01-24T23:07:09.160Z,1.90
2018-01-24T23:09:36.688Z,2.10
2018-01-24T23:12:04.950Z,2.28
2018-01-24T23:14:32.457Z,2.00
2018-01-24T23:16:59.980Z,2.20
2018-01-24T23:19:27.480Z,2.20
2018-01-24T23:21:55.017Z,1.90
2018-01-24T23:24:22.517Z,2.03
2018-01-24T23:26:50.815Z,2.95
2018-01-24T23:29:18.373Z,1.92
2018-01-24T23:31:45.864Z,1.80
2018-01-24T23:34:13.370Z,1.90
2018-01-24T23:36:40.868Z,2.00
2018-01-24T23:39:08.421Z,1.80
2018-01-24T23:41:35.917Z,2.20
2018-01-24T23:44:03.431Z,2.20
2018-01-24T23:46:31.692Z,1.67
2018-01-24T23:48:59.976Z,2.00
2018-01-24T23:51:28.243Z,2.03
2018-01-24T23:53:55.768Z,2.10
2018-01-24T23:56:23.272Z,1.70
2018-01-24T23:58:51.549Z,2.15
